sensor_id;sensor_type;location;lat;lon;timestamp;temperature;humidity
25616;DHT22;13482;48.234;13.006;2023-06-14T00:02:28;15.20;52.30
25616;DHT22;13482;48.234;13.006;2023-06-14T00:04:57;15.20;52.60
25616;DHT22;13482;48.234;13.006;2023-06-14T00:07:39;15.10;52.70
25616;DHT22;13482;48.234;13.006;2023-06-14T00:10:12;15.10;54.20
25616;DHT22;13482;48.234;13.006;2023-06-14T00:12:53;15.00;52.80
25616;DHT22;13482;48.234;13.006;2023-06-14T00:15:22;15.00;53.00
25616;DHT22;13482;48.234;13.006;2023-06-14T00:17:51;14.90;53.00
25616;DHT22;13482;48.234;13.006;2023-06-14T00:20:19;14.90;52.90
25616;DHT22;13482;48.234;13.006;2023-06-14T00:22:47;14.80;52.80
25616;DHT22;13482;48.234;13.006;2023-06-14T00:25:15;14.80;52.60
25616;DHT22;13482;48.234;13.006;2023-06-14T00:27:55;14.70;52.70
25616;DHT22;13482;48.234;13.006;2023-06-14T00:30:26;14.70;52.80
25616;DHT22;13482;48.234;13.006;2023-06-14T00:32:59;14.60;53.00
25616;DHT22;13482;48.234;13.006;2023-06-14T00:35:27;14.60;53.00
25616;DHT22;13482;48.234;13.006;2023-06-14T00:37:56;14.50;53.00
25616;DHT22;13482;48.234;13.006;2023-06-14T00:40:26;14.40;53.20
25616;DHT22;13482;48.234;13.006;2023-06-14T00:42:54;14.40;53.70
25616;DHT22;13482;48.234;13.006;2023-06-14T00:45:24;14.40;53.90
25616;DHT22;13482;48.234;13.006;2023-06-14T00:47:54;14.30;54.10
25616;DHT22;13482;48.234;13.006;2023-06-14T00:50:23;14.30;54.20
25616;DHT22;13482;48.234;13.006;2023-06-14T00:52:53;14.20;54.30
25616;DHT22;13482;48.234;13.006;2023-06-14T00:55:22;14.20;54.60
25616;DHT22;13482;48.234;13.006;2023-06-14T00:57:51;14.10;54.50
25616;DHT22;13482;48.234;13.006;2023-06-14T01:00:19;14.00;54.50
25616;DHT22;13482;48.234;13.006;2023-06-14T01:02:46;14.00;54.50
25616;DHT22;13482;48.234;13.006;2023-06-14T01:05:17;14.00;54.70
25616;DHT22;13482;48.234;13.006;2023-06-14T01:11:02;13.90;56.40
25616;DHT22;13482;48.234;13.006;2023-06-14T01:13:40;13.90;55.70
25616;DHT22;13482;48.234;13.006;2023-06-14T01:16:14;13.90;55.30
25616;DHT22;13482;48.234;13.006;2023-06-14T01:18:44;13.80;55.10
25616;DHT22;13482;48.234;13.006;2023-06-14T01:21:27;13.80;55.40
25616;DHT22;13482;48.234;13.006;2023-06-14T01:23:55;13.80;55.40
25616;DHT22;13482;48.234;13.006;2023-06-14T01:26:24;13.70;55.10
25616;DHT22;13482;48.234;13.006;2023-06-14T01:28:54;13.70;55.30
25616;DHT22;13482;48.234;13.006;2023-06-14T01:31:32;13.70;55.60
25616;DHT22;13482;48.234;13.006;2023-06-14T01:34:09;13.70;55.80
25616;DHT22;13482;48.234;13.006;2023-06-14T01:36:40;13.60;55.80
25616;DHT22;13482;48.234;13.006;2023-06-14T01:39:14;13.60;56.00
25616;DHT22;13482;48.234;13.006;2023-06-14T01:41:47;13.60;56.10
25616;DHT22;13482;48.234;13.006;2023-06-14T01:44:19;13.50;56.00
25616;DHT22;13482;48.234;13.006;2023-06-14T01:46:49;13.50;56.00
25616;DHT22;13482;48.234;13.006;2023-06-14T01:49:16;13.50;55.90
25616;DHT22;13482;48.234;13.006;2023-06-14T01:51:47;13.40;55.90
25616;DHT22;13482;48.234;13.006;2023-06-14T01:54:15;13.40;56.00
25616;DHT22;13482;48.234;13.006;2023-06-14T01:56:44;13.40;56.10
25616;DHT22;13482;48.234;13.006;2023-06-14T01:59:11;13.30;56.20
25616;DHT22;13482;48.234;13.006;2023-06-14T02:01:40;13.30;56.30
25616;DHT22;13482;48.234;13.006;2023-06-14T02:04:08;13.30;56.40
25616;DHT22;13482;48.234;13.006;2023-06-14T02:06:36;13.20;56.50
25616;DHT22;13482;48.234;13.006;2023-06-14T02:09:03;13.20;56.60
25616;DHT22;13482;48.234;13.006;2023-06-14T02:11:31;13.10;56.60
25616;DHT22;13482;48.234;13.006;2023-06-14T02:14:00;13.10;56.80
25616;DHT22;13482;48.234;13.006;2023-06-14T02:16:30;13.10;56.90
25616;DHT22;13482;48.234;13.006;2023-06-14T02:19:03;13.00;57.10
25616;DHT22;13482;48.234;13.006;2023-06-14T02:21:32;13.00;57.00
25616;DHT22;13482;48.234;13.006;2023-06-14T02:24:00;12.90;56.90
25616;DHT22;13482;48.234;13.006;2023-06-14T02:26:30;12.90;56.80
25616;DHT22;13482;48.234;13.006;2023-06-14T02:29:00;12.90;56.80
25616;DHT22;13482;48.234;13.006;2023-06-14T02:31:32;12.90;56.60
25616;DHT22;13482;48.234;13.006;2023-06-14T02:34:01;12.80;56.50
25616;DHT22;13482;48.234;13.006;2023-06-14T02:36:30;12.80;56.60
25616;DHT22;13482;48.234;13.006;2023-06-14T02:38:59;12.70;56.60
25616;DHT22;13482;48.234;13.006;2023-06-14T02:41:27;12.70;56.60
25616;DHT22;13482;48.234;13.006;2023-06-14T02:43:56;12.70;56.70
25616;DHT22;13482;48.234;13.006;2023-06-14T02:46:25;12.60;56.70
25616;DHT22;13482;48.234;13.006;2023-06-14T02:48:53;12.60;56.90
25616;DHT22;13482;48.234;13.006;2023-06-14T02:51:20;12.60;57.10
25616;DHT22;13482;48.234;13.006;2023-06-14T02:53:48;12.50;57.20
25616;DHT22;13482;48.234;13.006;2023-06-14T02:56:16;12.50;57.10
25616;DHT22;13482;48.234;13.006;2023-06-14T02:58:46;12.50;57.00
25616;DHT22;13482;48.234;13.006;2023-06-14T03:01:16;12.40;56.90
25616;DHT22;13482;48.234;13.006;2023-06-14T03:03:45;12.40;57.00
25616;DHT22;13482;48.234;13.006;2023-06-14T03:06:12;12.30;57.30
25616;DHT22;13482;48.234;13.006;2023-06-14T03:08:41;12.30;57.50
25616;DHT22;13482;48.234;13.006;2023-06-14T03:11:08;12.30;57.70
25616;DHT22;13482;48.234;13.006;2023-06-14T03:13:36;12.30;57.90
25616;DHT22;13482;48.234;13.006;2023-06-14T03:16:06;12.30;58.00
25616;DHT22;13482;48.234;13.006;2023-06-14T03:18:34;12.30;58.10
25616;DHT22;13482;48.234;13.006;2023-06-14T03:21:03;12.20;58.10
25616;DHT22;13482;48.234;13.006;2023-06-14T03:23:31;12.20;58.10
25616;DHT22;13482;48.234;13.006;2023-06-14T03:25:58;12.20;58.10
25616;DHT22;13482;48.234;13.006;2023-06-14T03:28:26;12.20;58.10
25616;DHT22;13482;48.234;13.006;2023-06-14T03:30:53;12.20;58.20
25616;DHT22;13482;48.234;13.006;2023-06-14T03:33:21;12.10;58.40
25616;DHT22;13482;48.234;13.006;2023-06-14T03:35:49;12.10;58.70
25616;DHT22;13482;48.234;13.006;2023-06-14T03:38:17;12.10;58.90
25616;DHT22;13482;48.234;13.006;2023-06-14T03:40:45;12.10;59.00
25616;DHT22;13482;48.234;13.006;2023-06-14T03:43:13;12.10;59.00
25616;DHT22;13482;48.234;13.006;2023-06-14T03:45:41;12.10;58.90
25616;DHT22;13482;48.234;13.006;2023-06-14T03:48:09;12.10;58.90
25616;DHT22;13482;48.234;13.006;2023-06-14T03:50:37;12.10;59.00
25616;DHT22;13482;48.234;13.006;2023-06-14T03:53:09;12.10;59.00
25616;DHT22;13482;48.234;13.006;2023-06-14T03:55:37;12.20;59.10
25616;DHT22;13482;48.234;13.006;2023-06-14T03:58:27;12.20;59.20
25616;DHT22;13482;48.234;13.006;2023-06-14T04:00:55;12.20;59.20
25616;DHT22;13482;48.234;13.006;2023-06-14T04:03:22;12.30;59.50
25616;DHT22;13482;48.234;13.006;2023-06-14T04:05:52;12.30;59.50
25616;DHT22;13482;48.234;13.006;2023-06-14T04:08:23;12.40;59.60
25616;DHT22;13482;48.234;13.006;2023-06-14T04:10:51;12.40;60.00
25616;DHT22;13482;48.234;13.006;2023-06-14T04:13:19;12.50;60.30
25616;DHT22;13482;48.234;13.006;2023-06-14T04:15:46;12.60;60.40
25616;DHT22;13482;48.234;13.006;2023-06-14T04:18:14;12.60;60.50
25616;DHT22;13482;48.234;13.006;2023-06-14T04:20:42;12.70;60.70
25616;DHT22;13482;48.234;13.006;2023-06-14T04:23:17;12.80;60.90
25616;DHT22;13482;48.234;13.006;2023-06-14T04:25:49;12.90;61.30
25616;DHT22;13482;48.234;13.006;2023-06-14T04:28:16;12.90;60.80
25616;DHT22;13482;48.234;13.006;2023-06-14T04:30:45;13.00;60.90
25616;DHT22;13482;48.234;13.006;2023-06-14T04:33:14;13.10;61.10
25616;DHT22;13482;48.234;13.006;2023-06-14T04:35:42;13.30;61.00
25616;DHT22;13482;48.234;13.006;2023-06-14T04:38:09;13.30;61.00
25616;DHT22;13482;48.234;13.006;2023-06-14T04:40:40;13.50;61.20
25616;DHT22;13482;48.234;13.006;2023-06-14T04:43:10;13.60;61.20
25616;DHT22;13482;48.234;13.006;2023-06-14T04:45:47;13.70;61.40
25616;DHT22;13482;48.234;13.006;2023-06-14T04:48:15;13.90;61.70
25616;DHT22;13482;48.234;13.006;2023-06-14T04:50:46;14.00;61.50
25616;DHT22;13482;48.234;13.006;2023-06-14T04:53:14;14.20;61.50
25616;DHT22;13482;48.234;13.006;2023-06-14T04:55:41;14.40;61.50
25616;DHT22;13482;48.234;13.006;2023-06-14T04:58:11;14.50;61.50
25616;DHT22;13482;48.234;13.006;2023-06-14T05:00:40;14.70;61.50
25616;DHT22;13482;48.234;13.006;2023-06-14T05:03:10;14.90;61.40
25616;DHT22;13482;48.234;13.006;2023-06-14T05:05:41;15.00;61.50
25616;DHT22;13482;48.234;13.006;2023-06-14T05:08:08;15.20;61.20
25616;DHT22;13482;48.234;13.006;2023-06-14T05:10:36;15.30;61.20
25616;DHT22;13482;48.234;13.006;2023-06-14T05:13:04;15.40;61.20
25616;DHT22;13482;48.234;13.006;2023-06-14T05:15:31;15.60;61.20
25616;DHT22;13482;48.234;13.006;2023-06-14T05:18:00;15.70;61.10
25616;DHT22;13482;48.234;13.006;2023-06-14T05:20:28;15.80;60.90
25616;DHT22;13482;48.234;13.006;2023-06-14T05:22:56;15.90;60.90
25616;DHT22;13482;48.234;13.006;2023-06-14T05:25:23;16.10;61.00
25616;DHT22;13482;48.234;13.006;2023-06-14T05:27:51;16.20;60.90
25616;DHT22;13482;48.234;13.006;2023-06-14T05:30:19;16.30;60.80
25616;DHT22;13482;48.234;13.006;2023-06-14T05:32:46;16.40;61.00
25616;DHT22;13482;48.234;13.006;2023-06-14T05:35:15;16.50;61.00
25616;DHT22;13482;48.234;13.006;2023-06-14T05:37:43;16.70;61.00
25616;DHT22;13482;48.234;13.006;2023-06-14T05:40:12;16.80;60.90
25616;DHT22;13482;48.234;13.006;2023-06-14T05:42:40;16.90;61.00
25616;DHT22;13482;48.234;13.006;2023-06-14T05:45:13;17.00;61.00
25616;DHT22;13482;48.234;13.006;2023-06-14T05:47:43;17.10;61.00
25616;DHT22;13482;48.234;13.006;2023-06-14T05:50:13;17.30;61.00
25616;DHT22;13482;48.234;13.006;2023-06-14T05:52:40;17.50;61.00
25616;DHT22;13482;48.234;13.006;2023-06-14T05:55:09;17.70;60.80
25616;DHT22;13482;48.234;13.006;2023-06-14T05:57:42;17.90;60.80
25616;DHT22;13482;48.234;13.006;2023-06-14T06:00:10;18.10;60.70
25616;DHT22;13482;48.234;13.006;2023-06-14T06:02:42;18.30;60.60
25616;DHT22;13482;48.234;13.006;2023-06-14T06:05:11;18.50;60.50
25616;DHT22;13482;48.234;13.006;2023-06-14T06:07:40;18.70;60.50
25616;DHT22;13482;48.234;13.006;2023-06-14T06:10:09;19.00;60.30
25616;DHT22;13482;48.234;13.006;2023-06-14T06:12:36;19.20;59.90
25616;DHT22;13482;48.234;13.006;2023-06-14T06:15:04;19.40;59.70
25616;DHT22;13482;48.234;13.006;2023-06-14T06:17:33;19.60;59.40
25616;DHT22;13482;48.234;13.006;2023-06-14T06:20:21;19.90;59.00
25616;DHT22;13482;48.234;13.006;2023-06-14T06:22:56;20.10;58.80
25616;DHT22;13482;48.234;13.006;2023-06-14T06:25:26;20.40;58.50
25616;DHT22;13482;48.234;13.006;2023-06-14T06:27:56;20.60;58.10
25616;DHT22;13482;48.234;13.006;2023-06-14T06:30:25;20.70;57.60
25616;DHT22;13482;48.234;13.006;2023-06-14T06:32:53;20.90;57.50
25616;DHT22;13482;48.234;13.006;2023-06-14T06:35:24;21.10;57.40
25616;DHT22;13482;48.234;13.006;2023-06-14T06:37:53;21.30;57.30
25616;DHT22;13482;48.234;13.006;2023-06-14T06:40:20;21.40;57.00
25616;DHT22;13482;48.234;13.006;2023-06-14T06:42:48;21.60;56.90
25616;DHT22;13482;48.234;13.006;2023-06-14T06:45:16;21.80;56.50
25616;DHT22;13482;48.234;13.006;2023-06-14T06:47:44;22.00;56.40
25616;DHT22;13482;48.234;13.006;2023-06-14T06:50:12;22.10;56.50
25616;DHT22;13482;48.234;13.006;2023-06-14T06:52:39;22.30;56.80
25616;DHT22;13482;48.234;13.006;2023-06-14T06:55:07;22.40;56.50
25616;DHT22;13482;48.234;13.006;2023-06-14T06:57:38;22.60;56.10
25616;DHT22;13482;48.234;13.006;2023-06-14T07:00:10;22.80;55.80
25616;DHT22;13482;48.234;13.006;2023-06-14T07:02:38;22.90;55.40
25616;DHT22;13482;48.234;13.006;2023-06-14T07:05:05;23.10;55.40
25616;DHT22;13482;48.234;13.006;2023-06-14T07:07:34;23.20;55.30
25616;DHT22;13482;48.234;13.006;2023-06-14T07:10:03;23.40;55.00
25616;DHT22;13482;48.234;13.006;2023-06-14T07:12:32;23.50;55.00
25616;DHT22;13482;48.234;13.006;2023-06-14T07:15:02;23.60;54.90
25616;DHT22;13482;48.234;13.006;2023-06-14T07:17:29;23.80;54.80
25616;DHT22;13482;48.234;13.006;2023-06-14T07:19:57;23.90;54.60
25616;DHT22;13482;48.234;13.006;2023-06-14T07:22:26;24.10;54.30
25616;DHT22;13482;48.234;13.006;2023-06-14T07:24:54;24.20;54.10
25616;DHT22;13482;48.234;13.006;2023-06-14T07:27:21;24.30;53.80
25616;DHT22;13482;48.234;13.006;2023-06-14T07:29:49;24.40;53.70
25616;DHT22;13482;48.234;13.006;2023-06-14T07:32:17;24.50;53.50
25616;DHT22;13482;48.234;13.006;2023-06-14T07:34:45;24.60;53.50
25616;DHT22;13482;48.234;13.006;2023-06-14T07:37:12;24.70;53.50
25616;DHT22;13482;48.234;13.006;2023-06-14T07:39:39;24.80;53.40
25616;DHT22;13482;48.234;13.006;2023-06-14T07:42:07;24.90;53.40
25616;DHT22;13482;48.234;13.006;2023-06-14T07:44:35;25.00;53.30
25616;DHT22;13482;48.234;13.006;2023-06-14T07:47:03;25.10;53.10
25616;DHT22;13482;48.234;13.006;2023-06-14T07:49:31;25.20;52.70
25616;DHT22;13482;48.234;13.006;2023-06-14T07:51:58;25.30;52.80
25616;DHT22;13482;48.234;13.006;2023-06-14T07:54:26;25.40;52.50
25616;DHT22;13482;48.234;13.006;2023-06-14T07:56:54;25.50;52.60
25616;DHT22;13482;48.234;13.006;2023-06-14T07:59:23;25.60;52.40
25616;DHT22;13482;48.234;13.006;2023-06-14T08:01:50;25.60;52.40
25616;DHT22;13482;48.234;13.006;2023-06-14T08:04:18;25.70;52.10
25616;DHT22;13482;48.234;13.006;2023-06-14T08:06:45;25.80;52.00
25616;DHT22;13482;48.234;13.006;2023-06-14T08:09:17;25.90;52.00
25616;DHT22;13482;48.234;13.006;2023-06-14T08:11:46;26.00;51.80
25616;DHT22;13482;48.234;13.006;2023-06-14T08:14:14;26.00;51.80
25616;DHT22;13482;48.234;13.006;2023-06-14T08:16:41;26.10;51.70
25616;DHT22;13482;48.234;13.006;2023-06-14T08:19:10;26.20;51.60
25616;DHT22;13482;48.234;13.006;2023-06-14T08:21:39;26.30;51.80
25616;DHT22;13482;48.234;13.006;2023-06-14T08:24:07;26.30;51.60
25616;DHT22;13482;48.234;13.006;2023-06-14T08:26:36;26.40;51.70
25616;DHT22;13482;48.234;13.006;2023-06-14T08:29:03;26.50;51.40
25616;DHT22;13482;48.234;13.006;2023-06-14T08:31:31;26.60;51.40
25616;DHT22;13482;48.234;13.006;2023-06-14T08:33:59;26.70;51.50
25616;DHT22;13482;48.234;13.006;2023-06-14T08:36:28;26.80;51.60
25616;DHT22;13482;48.234;13.006;2023-06-14T08:38:55;26.90;51.50
25616;DHT22;13482;48.234;13.006;2023-06-14T08:41:23;27.00;51.30
25616;DHT22;13482;48.234;13.006;2023-06-14T08:43:52;27.20;51.00
25616;DHT22;13482;48.234;13.006;2023-06-14T08:46:20;27.30;51.10
25616;DHT22;13482;48.234;13.006;2023-06-14T08:48:52;27.40;51.00
25616;DHT22;13482;48.234;13.006;2023-06-14T08:51:20;27.60;51.00
25616;DHT22;13482;48.234;13.006;2023-06-14T08:53:53;27.70;50.80
25616;DHT22;13482;48.234;13.006;2023-06-14T08:56:28;27.90;50.30
25616;DHT22;13482;48.234;13.006;2023-06-14T08:58:59;28.00;50.20
25616;DHT22;13482;48.234;13.006;2023-06-14T09:01:36;28.10;49.70
25616;DHT22;13482;48.234;13.006;2023-06-14T09:04:04;28.20;49.80
25616;DHT22;13482;48.234;13.006;2023-06-14T09:06:35;28.30;49.70
25616;DHT22;13482;48.234;13.006;2023-06-14T09:09:04;28.40;49.80
25616;DHT22;13482;48.234;13.006;2023-06-14T09:11:38;28.50;49.70
25616;DHT22;13482;48.234;13.006;2023-06-14T09:14:09;28.60;49.50
25616;DHT22;13482;48.234;13.006;2023-06-14T09:16:37;28.70;49.70
25616;DHT22;13482;48.234;13.006;2023-06-14T09:19:05;28.80;49.60
25616;DHT22;13482;48.234;13.006;2023-06-14T09:21:36;28.90;49.40
25616;DHT22;13482;48.234;13.006;2023-06-14T09:24:06;29.00;49.20
25616;DHT22;13482;48.234;13.006;2023-06-14T09:26:38;29.10;49.00
25616;DHT22;13482;48.234;13.006;2023-06-14T09:29:09;29.20;48.80
25616;DHT22;13482;48.234;13.006;2023-06-14T09:31:38;29.30;48.50
25616;DHT22;13482;48.234;13.006;2023-06-14T09:34:10;29.30;48.50
25616;DHT22;13482;48.234;13.006;2023-06-14T09:36:43;29.40;48.60
25616;DHT22;13482;48.234;13.006;2023-06-14T09:39:10;29.50;48.60
25616;DHT22;13482;48.234;13.006;2023-06-14T09:41:45;29.50;48.30
25616;DHT22;13482;48.234;13.006;2023-06-14T09:44:13;29.60;48.30
25616;DHT22;13482;48.234;13.006;2023-06-14T09:46:46;29.70;48.50
25616;DHT22;13482;48.234;13.006;2023-06-14T09:49:19;29.80;48.40
25616;DHT22;13482;48.234;13.006;2023-06-14T09:51:51;29.80;48.00
25616;DHT22;13482;48.234;13.006;2023-06-14T09:54:22;29.90;48.10
25616;DHT22;13482;48.234;13.006;2023-06-14T09:56:51;30.00;47.70
25616;DHT22;13482;48.234;13.006;2023-06-14T09:59:26;30.00;47.70
25616;DHT22;13482;48.234;13.006;2023-06-14T10:01:58;30.10;47.50
25616;DHT22;13482;48.234;13.006;2023-06-14T10:04:29;30.20;47.60
25616;DHT22;13482;48.234;13.006;2023-06-14T10:07:03;30.30;47.60
25616;DHT22;13482;48.234;13.006;2023-06-14T10:09:34;30.40;47.60
25616;DHT22;13482;48.234;13.006;2023-06-14T10:12:05;30.50;47.20
25616;DHT22;13482;48.234;13.006;2023-06-14T10:14:33;30.60;47.10
25616;DHT22;13482;48.234;13.006;2023-06-14T10:17:20;30.60;47.30
25616;DHT22;13482;48.234;13.006;2023-06-14T10:20:42;30.70;46.10
25616;DHT22;13482;48.234;13.006;2023-06-14T10:23:23;30.80;46.00
25616;DHT22;13482;48.234;13.006;2023-06-14T10:26:00;30.80;46.00
25616;DHT22;13482;48.234;13.006;2023-06-14T10:28:28;30.80;46.10
25616;DHT22;13482;48.234;13.006;2023-06-14T10:33:55;30.90;45.40
25616;DHT22;13482;48.234;13.006;2023-06-14T10:36:27;30.80;46.00
25616;DHT22;13482;48.234;13.006;2023-06-14T10:39:06;30.90;46.20
25616;DHT22;13482;48.234;13.006;2023-06-14T10:41:39;30.90;45.70
25616;DHT22;13482;48.234;13.006;2023-06-14T10:46:53;31.00;45.10
25616;DHT22;13482;48.234;13.006;2023-06-14T10:52:15;31.00;44.10
25616;DHT22;13482;48.234;13.006;2023-06-14T10:55:16;31.00;44.40
25616;DHT22;13482;48.234;13.006;2023-06-14T10:57:55;31.00;44.40
25616;DHT22;13482;48.234;13.006;2023-06-14T11:00:27;31.00;45.00
25616;DHT22;13482;48.234;13.006;2023-06-14T11:03:24;31.00;45.10
25616;DHT22;13482;48.234;13.006;2023-06-14T11:06:14;31.10;44.90
25616;DHT22;13482;48.234;13.006;2023-06-14T11:09:07;31.20;44.80
25616;DHT22;13482;48.234;13.006;2023-06-14T11:11:42;31.30;45.10
25616;DHT22;13482;48.234;13.006;2023-06-14T11:17:30;31.40;45.20
25616;DHT22;13482;48.234;13.006;2023-06-14T11:20:11;31.50;44.90
25616;DHT22;13482;48.234;13.006;2023-06-14T11:22:51;31.60;42.90
25616;DHT22;13482;48.234;13.006;2023-06-14T11:25:22;31.60;43.90
25616;DHT22;13482;48.234;13.006;2023-06-14T11:27:50;31.60;43.80
25616;DHT22;13482;48.234;13.006;2023-06-14T11:30:20;31.60;43.00
25616;DHT22;13482;48.234;13.006;2023-06-14T11:32:52;31.50;42.60
25616;DHT22;13482;48.234;13.006;2023-06-14T11:35:25;31.50;42.60
25616;DHT22;13482;48.234;13.006;2023-06-14T11:37:57;31.40;42.80
25616;DHT22;13482;48.234;13.006;2023-06-14T11:40:29;31.40;42.60
25616;DHT22;13482;48.234;13.006;2023-06-14T11:42:59;31.40;42.70
25616;DHT22;13482;48.234;13.006;2023-06-14T11:45:30;31.40;43.10
25616;DHT22;13482;48.234;13.006;2023-06-14T11:47:59;31.40;42.70
25616;DHT22;13482;48.234;13.006;2023-06-14T11:50:28;31.40;42.80
25616;DHT22;13482;48.234;13.006;2023-06-14T11:52:58;31.50;42.80
25616;DHT22;13482;48.234;13.006;2023-06-14T11:55:38;31.50;42.70
25616;DHT22;13482;48.234;13.006;2023-06-14T11:58:10;31.60;42.10
25616;DHT22;13482;48.234;13.006;2023-06-14T12:00:39;31.70;41.90
25616;DHT22;13482;48.234;13.006;2023-06-14T12:03:07;31.70;42.10
25616;DHT22;13482;48.234;13.006;2023-06-14T12:05:34;31.80;42.60
25616;DHT22;13482;48.234;13.006;2023-06-14T12:08:06;31.90;42.40
25616;DHT22;13482;48.234;13.006;2023-06-14T12:10:41;32.00;42.30
25616;DHT22;13482;48.234;13.006;2023-06-14T12:13:11;32.10;41.70
25616;DHT22;13482;48.234;13.006;2023-06-14T12:15:38;32.10;41.90
25616;DHT22;13482;48.234;13.006;2023-06-14T12:18:06;32.20;41.60
25616;DHT22;13482;48.234;13.006;2023-06-14T12:20:35;32.20;41.30
25616;DHT22;13482;48.234;13.006;2023-06-14T12:23:04;32.20;41.30
25616;DHT22;13482;48.234;13.006;2023-06-14T12:25:37;32.30;41.80
25616;DHT22;13482;48.234;13.006;2023-06-14T12:28:08;32.30;41.60
25616;DHT22;13482;48.234;13.006;2023-06-14T12:30:37;32.30;41.60
25616;DHT22;13482;48.234;13.006;2023-06-14T12:33:09;32.40;41.40
25616;DHT22;13482;48.234;13.006;2023-06-14T12:35:39;32.40;41.10
25616;DHT22;13482;48.234;13.006;2023-06-14T12:38:08;32.50;41.20
25616;DHT22;13482;48.234;13.006;2023-06-14T12:40:35;32.50;41.00
25616;DHT22;13482;48.234;13.006;2023-06-14T12:43:04;32.50;41.00
25616;DHT22;13482;48.234;13.006;2023-06-14T12:45:32;32.60;40.70
25616;DHT22;13482;48.234;13.006;2023-06-14T12:48:00;32.70;40.70
25616;DHT22;13482;48.234;13.006;2023-06-14T12:50:30;32.70;40.40
25616;DHT22;13482;48.234;13.006;2023-06-14T12:52:58;32.80;40.50
25616;DHT22;13482;48.234;13.006;2023-06-14T12:55:26;32.80;40.20
25616;DHT22;13482;48.234;13.006;2023-06-14T12:57:53;32.90;40.60
25616;DHT22;13482;48.234;13.006;2023-06-14T13:00:22;32.90;40.40
25616;DHT22;13482;48.234;13.006;2023-06-14T13:02:54;32.90;40.50
25616;DHT22;13482;48.234;13.006;2023-06-14T13:05:25;32.90;40.30
25616;DHT22;13482;48.234;13.006;2023-06-14T13:07:53;32.90;39.90
25616;DHT22;13482;48.234;13.006;2023-06-14T13:10:21;32.90;39.90
25616;DHT22;13482;48.234;13.006;2023-06-14T13:12:49;32.90;39.90
25616;DHT22;13482;48.234;13.006;2023-06-14T13:15:20;33.00;40.10
25616;DHT22;13482;48.234;13.006;2023-06-14T13:17:50;33.00;40.10
25616;DHT22;13482;48.234;13.006;2023-06-14T13:20:18;33.00;40.10
25616;DHT22;13482;48.234;13.006;2023-06-14T13:22:49;33.10;40.00
25616;DHT22;13482;48.234;13.006;2023-06-14T13:25:21;33.20;39.80
25616;DHT22;13482;48.234;13.006;2023-06-14T13:27:50;33.20;40.00
25616;DHT22;13482;48.234;13.006;2023-06-14T13:30:17;33.30;40.40
25616;DHT22;13482;48.234;13.006;2023-06-14T13:32:49;33.40;40.20
25616;DHT22;13482;48.234;13.006;2023-06-14T13:35:19;33.40;39.80
25616;DHT22;13482;48.234;13.006;2023-06-14T13:37:48;33.50;39.60
25616;DHT22;13482;48.234;13.006;2023-06-14T13:40:18;33.50;39.20
25616;DHT22;13482;48.234;13.006;2023-06-14T13:42:46;33.50;39.20
25616;DHT22;13482;48.234;13.006;2023-06-14T13:45:15;33.40;39.60
25616;DHT22;13482;48.234;13.006;2023-06-14T13:47:42;33.40;40.20
25616;DHT22;13482;48.234;13.006;2023-06-14T13:50:10;33.50;39.90
25616;DHT22;13482;48.234;13.006;2023-06-14T13:52:42;33.50;40.10
25616;DHT22;13482;48.234;13.006;2023-06-14T13:55:18;33.60;40.00
25616;DHT22;13482;48.234;13.006;2023-06-14T13:57:48;33.60;39.80
25616;DHT22;13482;48.234;13.006;2023-06-14T14:00:19;33.60;39.80
25616;DHT22;13482;48.234;13.006;2023-06-14T14:02:51;33.60;39.90
25616;DHT22;13482;48.234;13.006;2023-06-14T14:05:19;33.50;39.70
25616;DHT22;13482;48.234;13.006;2023-06-14T14:07:53;33.40;39.80
25616;DHT22;13482;48.234;13.006;2023-06-14T14:10:24;33.30;39.60
25616;DHT22;13482;48.234;13.006;2023-06-14T14:12:52;33.30;39.60
25616;DHT22;13482;48.234;13.006;2023-06-14T14:15:20;33.20;39.70
25616;DHT22;13482;48.234;13.006;2023-06-14T14:17:48;33.20;39.80
25616;DHT22;13482;48.234;13.006;2023-06-14T14:20:16;33.10;40.00
25616;DHT22;13482;48.234;13.006;2023-06-14T14:22:44;33.10;40.00
25616;DHT22;13482;48.234;13.006;2023-06-14T14:25:14;33.00;39.90
25616;DHT22;13482;48.234;13.006;2023-06-14T14:27:45;33.00;39.70
25616;DHT22;13482;48.234;13.006;2023-06-14T14:30:20;33.00;39.70
25616;DHT22;13482;48.234;13.006;2023-06-14T14:32:52;33.00;39.80
25616;DHT22;13482;48.234;13.006;2023-06-14T14:35:25;33.10;39.80
25616;DHT22;13482;48.234;13.006;2023-06-14T14:37:58;33.10;40.00
25616;DHT22;13482;48.234;13.006;2023-06-14T14:40:26;33.10;40.60
25616;DHT22;13482;48.234;13.006;2023-06-14T14:42:54;33.20;40.50
25616;DHT22;13482;48.234;13.006;2023-06-14T14:45:29;33.30;39.80
25616;DHT22;13482;48.234;13.006;2023-06-14T14:48:01;33.40;39.70
25616;DHT22;13482;48.234;13.006;2023-06-14T14:50:30;33.40;39.80
25616;DHT22;13482;48.234;13.006;2023-06-14T14:53:00;33.50;39.90
25616;DHT22;13482;48.234;13.006;2023-06-14T14:55:50;33.60;40.10
25616;DHT22;13482;48.234;13.006;2023-06-14T14:58:22;33.60;39.50
25616;DHT22;13482;48.234;13.006;2023-06-14T15:01:08;33.70;39.20
25616;DHT22;13482;48.234;13.006;2023-06-14T15:03:39;33.70;39.20
25616;DHT22;13482;48.234;13.006;2023-06-14T15:06:29;33.80;39.30
25616;DHT22;13482;48.234;13.006;2023-06-14T15:08:59;33.80;38.80
25616;DHT22;13482;48.234;13.006;2023-06-14T15:11:28;33.90;38.60
25616;DHT22;13482;48.234;13.006;2023-06-14T15:13:56;33.90;38.80
25616;DHT22;13482;48.234;13.006;2023-06-14T15:16:28;34.00;39.20
25616;DHT22;13482;48.234;13.006;2023-06-14T15:18:58;34.00;39.10
25616;DHT22;13482;48.234;13.006;2023-06-14T15:21:25;34.00;39.20
25616;DHT22;13482;48.234;13.006;2023-06-14T15:23:53;33.90;39.40
25616;DHT22;13482;48.234;13.006;2023-06-14T15:26:25;33.90;39.60
25616;DHT22;13482;48.234;13.006;2023-06-14T15:28:53;33.90;39.80
25616;DHT22;13482;48.234;13.006;2023-06-14T15:31:20;33.90;40.10
25616;DHT22;13482;48.234;13.006;2023-06-14T15:33:50;34.00;39.50
25616;DHT22;13482;48.234;13.006;2023-06-14T15:36:17;34.00;39.00
25616;DHT22;13482;48.234;13.006;2023-06-14T15:38:45;33.90;38.60
25616;DHT22;13482;48.234;13.006;2023-06-14T15:41:12;33.80;38.50
25616;DHT22;13482;48.234;13.006;2023-06-14T15:43:40;33.60;38.30
25616;DHT22;13482;48.234;13.006;2023-06-14T15:46:08;33.40;38.30
25616;DHT22;13482;48.234;13.006;2023-06-14T15:48:35;33.20;38.40
25616;DHT22;13482;48.234;13.006;2023-06-14T15:51:03;33.10;38.90